Terminal Aerodrome Forecast
Issued by NWS Grand Rapids, MI

Home | Current Version | Previous Version | Text Only | Print | Product List | Glossary On
Versions: 1 2 3 4 5 6 7 8 9 10 11 12 13 14 15 16 17 18 19 20 21 22 23 24 25 26 27 28 29 30 31
859
FTUS43 KGRR 171123
TAFGRR
TAF
KGRR 171123Z 1712/1812 09014KT P6SM OVC008
     FM171400 09008KT P6SM OVC006
     FM172100 12006KT P6SM OVC003
     FM180200 18004KT P6SM OVC003=

USA.gov is the U.S. government's official web portal to all federal, state and local government web resources and services.